Cape Magnolia — 3FGP2 — position and weather

sailwx.info

Track history (hours):
 
Tides and Currents Weather Stations Pressure Air Temp Water Temp Dewpoint Dewpoint Depression Visibility Wind Speed Wind Dir Waves Ship Positions

Cape Magnolia

Last reported at 2017-May-09 20:03 UTC. Time now 2017-May-23 12:42 UTC.
Position N 34°31' E 134°40'.
Warning: this ship's position is 13 days out of date.

Length 292 m; draft 16 m.

Type: Cargo ship. MMSI: 357427000.

Date/timePositionNaut miles runAvg speedWind from/ knotsBaromVisibWave heightAir tempDewpointWater temp
2017-May-09 20:03N 34°31' E 134°40'110.6
2017-May-09 19:56N 34°31' E 134°42'511.2
2017-May-09 19:30N 34°33' E 134°47'611.6
2017-May-09 19:00N 34°35' E 134°54'610.7
2017-May-09 18:24N 34°37' E 135°01'410.3
2017-May-09 18:00N 34°35' E 135°05'4 7.2
2017-May-09 17:30N 34°34' E 135°09'0 0.3
2017-May-09 16:57N 34°34' E 135°09'0 0.0
2017-May-09 16:27N 34°34' E 135°09'0 0.0
2017-May-09 15:51N 34°34' E 135°09'0 0.0
2017-May-09 15:27N 34°34' E 135°09'0 0.0
2017-May-09 14:57N 34°34' E 135°09'0 0.1
2017-May-09 13:57N 34°34' E 135°09'0 0.0
2017-May-09 13:21N 34°34' E 135°09'0 0.0
2017-May-09 12:57N 34°34' E 135°09'0 0.0
2017-May-09 12:27N 34°34' E 135°09'0 0.0
2017-May-09 11:57N 34°34' E 135°09'0 0.1
2017-May-09 11:27N 34°34' E 135°09'0 0.1
2017-May-09 10:57N 34°34' E 135°09'0 0.1
2017-May-09 10:27N 34°34' E 135°09'0 0.1
2017-May-09 09:57N 34°34' E 135°09'0 0.0
2017-May-09 09:15N 34°34' E 135°09'0 0.0
2017-May-09 08:57N 34°34' E 135°09'0 0.0
2017-May-09 08:21N 34°34' E 135°09'0 0.1
2017-May-09 07:51N 34°34' E 135°09'0 0.2
2017-May-09 07:27N 34°34' E 135°09'1 1.5
2017-May-09 07:00N 34°33' E 135°09'4 7.3
2017-May-09 06:30N 34°30' E 135°07'612.3
2017-May-09 06:00N 34°24' E 135°04'612.7
2017-May-09 05:30N 34°18' E 135°00'510.9
2017-May-09 05:00N 34°13' E 134°59'4 8.1
2017-May-09 04:30N 34°09' E 134°60'2 4.4
2017-May-09 04:00N 34°07' E 134°59'5 6.0
2017-May-09 03:08N 34°02' E 134°58'1 8.6
2017-May-09 03:00N 34°01' E 134°58'4 8.3
2017-May-09 02:30N 33°57' E 134°58'4 8.3
2017-May-09 02:01N 33°53' E 134°57'70 8.5
2017-May-08 17:43N 32°45' E 134°36'2 7.9
2017-May-08 17:24N 32°43' E 134°34'4 8.3
2017-May-08 16:57N 32°40' E 134°31'4 8.0
2017-May-08 16:30N 32°37' E 134°28'4 7.6
2017-May-08 16:00N 32°33' E 134°29'4 8.2
2017-May-08 15:30N 32°29' E 134°29'  
Track history (hours):
 
Tides and Currents Weather Stations Pressure Air Temp Water Temp Dewpoint Dewpoint Depression Visibility Wind Speed Wind Dir Waves Ship Positions

Cape Magnolia

Last reported at 2017-May-09 20:03 UTC. Time now 2017-May-23 12:42 UTC.
Position N 34°31' E 134°40'.
Warning: this ship's position is 13 days out of date.

Length 292 m; draft 16 m.

Type: Cargo ship. MMSI: 357427000.

Date/timePositionNaut miles runAvg speedWind from/ knotsBaromVisibWave heightAir tempDewpointWater temp
2017-May-09 20:03N 34°31' E 134°40'110.6
2017-May-09 19:56N 34°31' E 134°42'511.2
2017-May-09 19:30N 34°33' E 134°47'611.6
2017-May-09 19:00N 34°35' E 134°54'610.7
2017-May-09 18:24N 34°37' E 135°01'410.3
2017-May-09 18:00N 34°35' E 135°05'4 7.2
2017-May-09 17:30N 34°34' E 135°09'0 0.3
2017-May-09 16:57N 34°34' E 135°09'0 0.0
2017-May-09 16:27N 34°34' E 135°09'0 0.0
2017-May-09 15:51N 34°34' E 135°09'0 0.0
2017-May-09 15:27N 34°34' E 135°09'0 0.0
2017-May-09 14:57N 34°34' E 135°09'0 0.1
2017-May-09 13:57N 34°34' E 135°09'0 0.0
2017-May-09 13:21N 34°34' E 135°09'0 0.0
2017-May-09 12:57N 34°34' E 135°09'0 0.0
2017-May-09 12:27N 34°34' E 135°09'0 0.0
2017-May-09 11:57N 34°34' E 135°09'0 0.1
2017-May-09 11:27N 34°34' E 135°09'0 0.1
2017-May-09 10:57N 34°34' E 135°09'0 0.1
2017-May-09 10:27N 34°34' E 135°09'0 0.1
2017-May-09 09:57N 34°34' E 135°09'0 0.0
2017-May-09 09:15N 34°34' E 135°09'0 0.0
2017-May-09 08:57N 34°34' E 135°09'0 0.0
2017-May-09 08:21N 34°34' E 135°09'0 0.1
2017-May-09 07:51N 34°34' E 135°09'0 0.2
2017-May-09 07:27N 34°34' E 135°09'1 1.5
2017-May-09 07:00N 34°33' E 135°09'4 7.3
2017-May-09 06:30N 34°30' E 135°07'612.3
2017-May-09 06:00N 34°24' E 135°04'612.7
2017-May-09 05:30N 34°18' E 135°00'510.9
2017-May-09 05:00N 34°13' E 134°59'4 8.1
2017-May-09 04:30N 34°09' E 134°60'2 4.4
2017-May-09 04:00N 34°07' E 134°59'5 6.0
2017-May-09 03:08N 34°02' E 134°58'1 8.6
2017-May-09 03:00N 34°01' E 134°58'4 8.3
2017-May-09 02:30N 33°57' E 134°58'4 8.3
2017-May-09 02:01N 33°53' E 134°57'70 8.5
2017-May-08 17:43N 32°45' E 134°36'2 7.9
2017-May-08 17:24N 32°43' E 134°34'4 8.3
2017-May-08 16:57N 32°40' E 134°31'4 8.0
2017-May-08 16:30N 32°37' E 134°28'4 7.6
2017-May-08 16:00N 32°33' E 134°29'4 8.2
2017-May-08 15:30N 32°29' E 134°29'  

Dump ship's entire track history